Decoded Metar for UNEE (KEMOROVO in RUSSIA) (IATA:KEJ) | Meteo·Mobile Aviation Weather
aviador You're here:

UNEE Decoded Metar

KEMOROVO in RUSSIA
Report Time2019-10-21 08:00:00
UTC Time2019-10-21 08:34:10
Flight Rules vfr VFR
Wind290° at 6 kt
W.Decomp.*RWY 23: 3.6 kt HW 4.8 kt RCW
Visibility9999 m
Phenomena:N/A
Clouds:Scattered 026 Hf
Expected CloudBase > 2,400 ft AGL from Temp-Dew spread
CeilingNone
Temp-4°C (ISA -17)
Dew Point-10°C (63% RH)
AAT-9.2°C
QNH1031 hPa
Density Alt-1,847 ft
Elevation853 ft
Report Wrong Elevation
Raw Report
UNEE 210800Z 29003MPS 9999 SCT026 M04/M10 Q1031 R23/CLRD60 NOSIG
RMK QFE750=

Extra information for UNEE:More info

Metar Taf Metar & Taf Last 4 Metars F.Rules Stats Wind Profile Meteogram Temp Stats Airport Information Weather charts Add Link Nearby VenuesMetar ALERT Operation Metar Decoded Social comments